sensor_id;sensor_type;location;lat;lon;timestamp;temperature;humidity
67901;DHT22;54700;51.796;10.956;2023-06-04T00:02:19;11.30;55.60
67901;DHT22;54700;51.796;10.956;2023-06-04T00:04:46;11.30;56.10
67901;DHT22;54700;51.796;10.956;2023-06-04T00:07:13;11.30;56.10
67901;DHT22;54700;51.796;10.956;2023-06-04T00:09:40;11.30;56.90
67901;DHT22;54700;51.796;10.956;2023-06-04T00:12:07;11.20;57.90
67901;DHT22;54700;51.796;10.956;2023-06-04T00:14:35;11.20;58.60
67901;DHT22;54700;51.796;10.956;2023-06-04T00:17:04;11.20;58.50
67901;DHT22;54700;51.796;10.956;2023-06-04T00:19:35;11.10;58.90
67901;DHT22;54700;51.796;10.956;2023-06-04T00:22:04;11.00;58.30
67901;DHT22;54700;51.796;10.956;2023-06-04T00:24:32;11.00;58.00
67901;DHT22;54700;51.796;10.956;2023-06-04T00:26:59;11.00;57.60
67901;DHT22;54700;51.796;10.956;2023-06-04T00:29:28;11.00;57.90
67901;DHT22;54700;51.796;10.956;2023-06-04T00:31:55;10.90;59.50
67901;DHT22;54700;51.796;10.956;2023-06-04T00:34:23;10.90;58.50
67901;DHT22;54700;51.796;10.956;2023-06-04T00:36:51;10.80;57.70
67901;DHT22;54700;51.796;10.956;2023-06-04T00:39:18;10.80;59.40
67901;DHT22;54700;51.796;10.956;2023-06-04T00:41:45;10.80;60.50
67901;DHT22;54700;51.796;10.956;2023-06-04T00:44:12;10.80;60.50
67901;DHT22;54700;51.796;10.956;2023-06-04T00:46:39;10.70;61.00
67901;DHT22;54700;51.796;10.956;2023-06-04T00:49:06;10.70;60.60
67901;DHT22;54700;51.796;10.956;2023-06-04T00:51:33;10.60;59.60
67901;DHT22;54700;51.796;10.956;2023-06-04T00:54:02;10.60;59.70
67901;DHT22;54700;51.796;10.956;2023-06-04T00:56:34;10.60;59.60
67901;DHT22;54700;51.796;10.956;2023-06-04T00:59:02;10.60;59.50
67901;DHT22;54700;51.796;10.956;2023-06-04T01:01:33;10.60;59.70
67901;DHT22;54700;51.796;10.956;2023-06-04T01:04:12;10.60;61.10
67901;DHT22;54700;51.796;10.956;2023-06-04T01:06:43;10.60;61.80
67901;DHT22;54700;51.796;10.956;2023-06-04T01:09:13;10.50;61.60
67901;DHT22;54700;51.796;10.956;2023-06-04T01:11:40;10.50;62.40
67901;DHT22;54700;51.796;10.956;2023-06-04T01:14:09;10.40;62.90
67901;DHT22;54700;51.796;10.956;2023-06-04T01:16:37;10.30;63.00
67901;DHT22;54700;51.796;10.956;2023-06-04T01:19:11;10.30;64.10
67901;DHT22;54700;51.796;10.956;2023-06-04T01:21:50;10.20;65.50
67901;DHT22;54700;51.796;10.956;2023-06-04T01:24:23;10.30;64.10
67901;DHT22;54700;51.796;10.956;2023-06-04T01:26:53;10.30;64.30
67901;DHT22;54700;51.796;10.956;2023-06-04T01:29:22;10.30;62.80
67901;DHT22;54700;51.796;10.956;2023-06-04T01:31:49;10.30;61.80
67901;DHT22;54700;51.796;10.956;2023-06-04T01:34:19;10.30;62.30
67901;DHT22;54700;51.796;10.956;2023-06-04T01:36:46;10.30;63.50
67901;DHT22;54700;51.796;10.956;2023-06-04T01:39:13;10.30;63.00
67901;DHT22;54700;51.796;10.956;2023-06-04T01:41:43;10.20;63.40
67901;DHT22;54700;51.796;10.956;2023-06-04T01:44:10;10.20;63.70
67901;DHT22;54700;51.796;10.956;2023-06-04T01:46:37;10.20;64.70
67901;DHT22;54700;51.796;10.956;2023-06-04T01:49:05;10.10;66.70
67901;DHT22;54700;51.796;10.956;2023-06-04T01:51:31;10.10;66.30
67901;DHT22;54700;51.796;10.956;2023-06-04T01:53:59;10.00;66.60
67901;DHT22;54700;51.796;10.956;2023-06-04T01:56:26;9.90;67.00
67901;DHT22;54700;51.796;10.956;2023-06-04T01:58:54;9.80;67.60
67901;DHT22;54700;51.796;10.956;2023-06-04T02:01:21;9.80;68.30
67901;DHT22;54700;51.796;10.956;2023-06-04T02:03:48;9.70;68.80
67901;DHT22;54700;51.796;10.956;2023-06-04T02:06:16;9.70;69.00
67901;DHT22;54700;51.796;10.956;2023-06-04T02:08:43;9.70;69.10
67901;DHT22;54700;51.796;10.956;2023-06-04T02:11:10;9.70;69.70
67901;DHT22;54700;51.796;10.956;2023-06-04T02:13:36;9.70;70.40
67901;DHT22;54700;51.796;10.956;2023-06-04T02:16:05;9.60;70.20
67901;DHT22;54700;51.796;10.956;2023-06-04T02:18:32;9.60;69.00
67901;DHT22;54700;51.796;10.956;2023-06-04T02:20:59;9.70;68.50
67901;DHT22;54700;51.796;10.956;2023-06-04T02:23:26;9.60;69.10
67901;DHT22;54700;51.796;10.956;2023-06-04T02:25:53;9.60;70.90
67901;DHT22;54700;51.796;10.956;2023-06-04T02:28:22;9.60;70.30
67901;DHT22;54700;51.796;10.956;2023-06-04T02:30:50;9.50;70.40
67901;DHT22;54700;51.796;10.956;2023-06-04T02:33:18;9.50;72.40
67901;DHT22;54700;51.796;10.956;2023-06-04T02:35:46;9.50;72.30
67901;DHT22;54700;51.796;10.956;2023-06-04T02:38:13;9.50;71.80
67901;DHT22;54700;51.796;10.956;2023-06-04T02:40:39;9.50;72.00
67901;DHT22;54700;51.796;10.956;2023-06-04T02:43:06;9.50;71.20
67901;DHT22;54700;51.796;10.956;2023-06-04T02:45:37;9.50;69.60
67901;DHT22;54700;51.796;10.956;2023-06-04T02:48:04;9.50;70.50
67901;DHT22;54700;51.796;10.956;2023-06-04T02:50:35;9.50;70.60
67901;DHT22;54700;51.796;10.956;2023-06-04T02:53:07;9.50;71.10
67901;DHT22;54700;51.796;10.956;2023-06-04T02:55:34;9.40;72.70
67901;DHT22;54700;51.796;10.956;2023-06-04T02:58:01;9.40;72.50
67901;DHT22;54700;51.796;10.956;2023-06-04T03:00:28;9.30;73.90
67901;DHT22;54700;51.796;10.956;2023-06-04T03:02:55;9.20;73.60
67901;DHT22;54700;51.796;10.956;2023-06-04T03:05:26;9.20;73.40
67901;DHT22;54700;51.796;10.956;2023-06-04T03:08:00;9.10;73.30
67901;DHT22;54700;51.796;10.956;2023-06-04T03:10:29;9.10;75.30
67901;DHT22;54700;51.796;10.956;2023-06-04T03:12:56;9.10;76.00
67901;DHT22;54700;51.796;10.956;2023-06-04T03:15:23;9.20;77.50
67901;DHT22;54700;51.796;10.956;2023-06-04T03:17:50;9.20;76.80
67901;DHT22;54700;51.796;10.956;2023-06-04T03:20:17;9.20;75.90
67901;DHT22;54700;51.796;10.956;2023-06-04T03:22:44;9.20;76.20
67901;DHT22;54700;51.796;10.956;2023-06-04T03:25:13;9.20;76.00
67901;DHT22;54700;51.796;10.956;2023-06-04T03:27:40;9.20;77.60
67901;DHT22;54700;51.796;10.956;2023-06-04T03:30:10;9.20;77.60
67901;DHT22;54700;51.796;10.956;2023-06-04T03:32:39;9.20;77.60
67901;DHT22;54700;51.796;10.956;2023-06-04T03:35:07;9.20;75.80
67901;DHT22;54700;51.796;10.956;2023-06-04T03:37:34;9.20;76.90
67901;DHT22;54700;51.796;10.956;2023-06-04T03:40:01;9.30;75.70
67901;DHT22;54700;51.796;10.956;2023-06-04T03:42:36;9.30;76.00
67901;DHT22;54700;51.796;10.956;2023-06-04T03:45:03;9.40;75.80
67901;DHT22;54700;51.796;10.956;2023-06-04T03:47:30;9.40;75.80
67901;DHT22;54700;51.796;10.956;2023-06-04T03:49:57;9.50;75.80
67901;DHT22;54700;51.796;10.956;2023-06-04T03:52:26;9.50;75.30
67901;DHT22;54700;51.796;10.956;2023-06-04T03:54:53;9.60;75.00
67901;DHT22;54700;51.796;10.956;2023-06-04T03:57:22;9.60;75.10
67901;DHT22;54700;51.796;10.956;2023-06-04T03:59:50;9.70;76.40
67901;DHT22;54700;51.796;10.956;2023-06-04T04:02:17;9.90;77.10
67901;DHT22;54700;51.796;10.956;2023-06-04T04:04:44;10.30;73.70
67901;DHT22;54700;51.796;10.956;2023-06-04T04:07:12;11.20;68.10
67901;DHT22;54700;51.796;10.956;2023-06-04T04:09:42;11.80;64.30
67901;DHT22;54700;51.796;10.956;2023-06-04T04:12:11;12.00;63.80
67901;DHT22;54700;51.796;10.956;2023-06-04T04:14:40;11.90;63.40
67901;DHT22;54700;51.796;10.956;2023-06-04T04:17:10;11.70;65.50
67901;DHT22;54700;51.796;10.956;2023-06-04T04:19:38;11.40;68.00
67901;DHT22;54700;51.796;10.956;2023-06-04T04:22:09;11.20;69.90
67901;DHT22;54700;51.796;10.956;2023-06-04T04:24:37;11.00;70.60
67901;DHT22;54700;51.796;10.956;2023-06-04T04:27:07;11.00;71.20
67901;DHT22;54700;51.796;10.956;2023-06-04T04:29:38;11.10;71.40
67901;DHT22;54700;51.796;10.956;2023-06-04T04:32:08;11.10;71.10
67901;DHT22;54700;51.796;10.956;2023-06-04T04:34:38;11.10;71.00
67901;DHT22;54700;51.796;10.956;2023-06-04T04:37:05;11.10;71.80
67901;DHT22;54700;51.796;10.956;2023-06-04T04:39:34;11.10;71.60
67901;DHT22;54700;51.796;10.956;2023-06-04T04:42:01;11.10;71.20
67901;DHT22;54700;51.796;10.956;2023-06-04T04:44:29;11.10;70.80
67901;DHT22;54700;51.796;10.956;2023-06-04T04:46:56;11.20;70.30
67901;DHT22;54700;51.796;10.956;2023-06-04T04:49:23;11.20;70.20
67901;DHT22;54700;51.796;10.956;2023-06-04T04:51:57;11.30;70.20
67901;DHT22;54700;51.796;10.956;2023-06-04T04:54:27;11.50;69.60
67901;DHT22;54700;51.796;10.956;2023-06-04T04:56:54;12.00;66.70
67901;DHT22;54700;51.796;10.956;2023-06-04T04:59:21;12.40;64.40
67901;DHT22;54700;51.796;10.956;2023-06-04T05:01:48;12.60;62.40
67901;DHT22;54700;51.796;10.956;2023-06-04T05:04:14;13.10;61.30
67901;DHT22;54700;51.796;10.956;2023-06-04T05:06:41;13.50;58.50
67901;DHT22;54700;51.796;10.956;2023-06-04T05:09:10;13.70;57.40
67901;DHT22;54700;51.796;10.956;2023-06-04T05:11:36;13.80;56.90
67901;DHT22;54700;51.796;10.956;2023-06-04T05:14:03;13.90;56.70
67901;DHT22;54700;51.796;10.956;2023-06-04T05:16:31;14.10;55.80
67901;DHT22;54700;51.796;10.956;2023-06-04T05:19:00;14.60;54.60
67901;DHT22;54700;51.796;10.956;2023-06-04T05:21:28;15.40;51.80
67901;DHT22;54700;51.796;10.956;2023-06-04T05:23:55;16.00;49.90
67901;DHT22;54700;51.796;10.956;2023-06-04T05:26:23;16.40;48.90
67901;DHT22;54700;51.796;10.956;2023-06-04T05:28:51;16.20;49.00
67901;DHT22;54700;51.796;10.956;2023-06-04T05:31:17;15.80;49.40
67901;DHT22;54700;51.796;10.956;2023-06-04T05:33:44;15.30;49.70
67901;DHT22;54700;51.796;10.956;2023-06-04T05:36:13;14.90;50.40
67901;DHT22;54700;51.796;10.956;2023-06-04T05:38:40;14.50;51.00
67901;DHT22;54700;51.796;10.956;2023-06-04T05:41:07;14.30;51.80
67901;DHT22;54700;51.796;10.956;2023-06-04T05:43:37;14.20;52.20
67901;DHT22;54700;51.796;10.956;2023-06-04T05:46:05;14.00;52.60
67901;DHT22;54700;51.796;10.956;2023-06-04T05:48:36;13.90;52.40
67901;DHT22;54700;51.796;10.956;2023-06-04T05:51:03;13.90;52.30
67901;DHT22;54700;51.796;10.956;2023-06-04T05:53:31;13.80;52.30
67901;DHT22;54700;51.796;10.956;2023-06-04T05:55:58;13.70;52.30
67901;DHT22;54700;51.796;10.956;2023-06-04T05:58:25;13.70;52.30
67901;DHT22;54700;51.796;10.956;2023-06-04T06:00:53;13.70;52.70
67901;DHT22;54700;51.796;10.956;2023-06-04T06:03:21;13.70;53.10
67901;DHT22;54700;51.796;10.956;2023-06-04T06:05:48;13.70;53.00
67901;DHT22;54700;51.796;10.956;2023-06-04T06:08:15;13.70;52.80
67901;DHT22;54700;51.796;10.956;2023-06-04T06:10:41;13.80;52.30
67901;DHT22;54700;51.796;10.956;2023-06-04T06:13:08;13.80;52.10
67901;DHT22;54700;51.796;10.956;2023-06-04T06:15:35;13.90;51.80
67901;DHT22;54700;51.796;10.956;2023-06-04T06:18:03;13.90;51.90
67901;DHT22;54700;51.796;10.956;2023-06-04T06:20:30;14.00;53.20
67901;DHT22;54700;51.796;10.956;2023-06-04T06:22:57;14.10;53.60
67901;DHT22;54700;51.796;10.956;2023-06-04T06:25:24;14.10;52.30
67901;DHT22;54700;51.796;10.956;2023-06-04T06:27:51;14.20;52.90
67901;DHT22;54700;51.796;10.956;2023-06-04T06:30:18;14.30;54.30
67901;DHT22;54700;51.796;10.956;2023-06-04T06:32:45;14.30;54.20
67901;DHT22;54700;51.796;10.956;2023-06-04T06:35:15;14.40;53.50
67901;DHT22;54700;51.796;10.956;2023-06-04T06:37:42;14.40;53.70
67901;DHT22;54700;51.796;10.956;2023-06-04T06:40:09;14.50;53.00
67901;DHT22;54700;51.796;10.956;2023-06-04T06:42:36;14.50;52.20
67901;DHT22;54700;51.796;10.956;2023-06-04T06:45:03;14.50;52.10
67901;DHT22;54700;51.796;10.956;2023-06-04T06:47:34;14.60;54.00
67901;DHT22;54700;51.796;10.956;2023-06-04T06:50:01;14.60;53.70
67901;DHT22;54700;51.796;10.956;2023-06-04T06:52:29;14.70;52.80
67901;DHT22;54700;51.796;10.956;2023-06-04T06:54:56;14.70;53.00
67901;DHT22;54700;51.796;10.956;2023-06-04T06:57:23;14.80;53.00
67901;DHT22;54700;51.796;10.956;2023-06-04T06:59:50;14.80;52.20
67901;DHT22;54700;51.796;10.956;2023-06-04T07:02:19;14.80;52.30
67901;DHT22;54700;51.796;10.956;2023-06-04T07:04:46;14.90;52.90
67901;DHT22;54700;51.796;10.956;2023-06-04T07:07:13;14.90;52.70
67901;DHT22;54700;51.796;10.956;2023-06-04T07:09:41;15.00;51.90
67901;DHT22;54700;51.796;10.956;2023-06-04T07:12:08;15.00;50.80
67901;DHT22;54700;51.796;10.956;2023-06-04T07:14:35;15.00;51.00
67901;DHT22;54700;51.796;10.956;2023-06-04T07:17:02;15.00;51.30
67901;DHT22;54700;51.796;10.956;2023-06-04T07:19:29;15.10;51.50
67901;DHT22;54700;51.796;10.956;2023-06-04T07:21:56;15.20;49.50
67901;DHT22;54700;51.796;10.956;2023-06-04T07:24:23;15.30;49.40
67901;DHT22;54700;51.796;10.956;2023-06-04T07:26:51;15.30;47.70
67901;DHT22;54700;51.796;10.956;2023-06-04T07:29:19;15.50;47.50
67901;DHT22;54700;51.796;10.956;2023-06-04T07:31:45;15.50;47.80
67901;DHT22;54700;51.796;10.956;2023-06-04T07:34:12;15.50;46.80
67901;DHT22;54700;51.796;10.956;2023-06-04T07:36:39;15.50;45.70
67901;DHT22;54700;51.796;10.956;2023-06-04T07:39:06;15.50;45.40
67901;DHT22;54700;51.796;10.956;2023-06-04T07:41:33;15.50;45.90
67901;DHT22;54700;51.796;10.956;2023-06-04T07:44:02;15.60;46.10
67901;DHT22;54700;51.796;10.956;2023-06-04T07:46:28;15.60;45.40
67901;DHT22;54700;51.796;10.956;2023-06-04T07:48:55;15.70;45.50
67901;DHT22;54700;51.796;10.956;2023-06-04T07:51:22;15.80;45.90
67901;DHT22;54700;51.796;10.956;2023-06-04T07:53:51;15.80;46.20
67901;DHT22;54700;51.796;10.956;2023-06-04T07:56:19;15.90;45.30
67901;DHT22;54700;51.796;10.956;2023-06-04T07:58:46;15.90;45.10
67901;DHT22;54700;51.796;10.956;2023-06-04T08:01:14;15.90;44.60
67901;DHT22;54700;51.796;10.956;2023-06-04T08:03:41;16.00;42.80
67901;DHT22;54700;51.796;10.956;2023-06-04T08:06:08;16.10;43.20
67901;DHT22;54700;51.796;10.956;2023-06-04T08:08:35;16.10;43.00
67901;DHT22;54700;51.796;10.956;2023-06-04T08:11:02;16.20;41.70
67901;DHT22;54700;51.796;10.956;2023-06-04T08:13:29;16.30;41.30
67901;DHT22;54700;51.796;10.956;2023-06-04T08:15:56;16.30;40.80
67901;DHT22;54700;51.796;10.956;2023-06-04T08:18:24;16.40;40.50
67901;DHT22;54700;51.796;10.956;2023-06-04T08:20:51;16.50;41.70
67901;DHT22;54700;51.796;10.956;2023-06-04T08:23:18;16.50;43.00
67901;DHT22;54700;51.796;10.956;2023-06-04T08:25:45;16.50;42.90
67901;DHT22;54700;51.796;10.956;2023-06-04T08:28:12;16.60;42.80
67901;DHT22;54700;51.796;10.956;2023-06-04T08:30:41;16.70;42.60
67901;DHT22;54700;51.796;10.956;2023-06-04T08:33:08;16.80;42.00
67901;DHT22;54700;51.796;10.956;2023-06-04T08:35:39;16.90;43.10
67901;DHT22;54700;51.796;10.956;2023-06-04T08:38:09;17.00;42.00
67901;DHT22;54700;51.796;10.956;2023-06-04T08:40:36;17.10;41.00
67901;DHT22;54700;51.796;10.956;2023-06-04T08:43:06;17.20;40.10
67901;DHT22;54700;51.796;10.956;2023-06-04T08:45:37;17.20;39.60
67901;DHT22;54700;51.796;10.956;2023-06-04T08:48:05;17.20;38.70
67901;DHT22;54700;51.796;10.956;2023-06-04T08:50:37;17.20;39.10
67901;DHT22;54700;51.796;10.956;2023-06-04T08:53:08;17.20;39.80
67901;DHT22;54700;51.796;10.956;2023-06-04T08:55:40;17.20;38.60
67901;DHT22;54700;51.796;10.956;2023-06-04T08:58:07;17.30;39.60
67901;DHT22;54700;51.796;10.956;2023-06-04T09:00:38;17.30;38.60
67901;DHT22;54700;51.796;10.956;2023-06-04T09:03:05;17.30;37.60
67901;DHT22;54700;51.796;10.956;2023-06-04T09:05:32;17.30;36.70
67901;DHT22;54700;51.796;10.956;2023-06-04T09:08:02;17.30;38.40
67901;DHT22;54700;51.796;10.956;2023-06-04T09:10:32;17.40;36.90
67901;DHT22;54700;51.796;10.956;2023-06-04T09:13:05;17.40;37.60
67901;DHT22;54700;51.796;10.956;2023-06-04T09:15:40;17.40;37.10
67901;DHT22;54700;51.796;10.956;2023-06-04T09:18:07;17.40;37.30
67901;DHT22;54700;51.796;10.956;2023-06-04T09:20:34;17.40;37.10
67901;DHT22;54700;51.796;10.956;2023-06-04T09:23:02;17.50;36.80
67901;DHT22;54700;51.796;10.956;2023-06-04T09:25:41;17.50;37.00
67901;DHT22;54700;51.796;10.956;2023-06-04T09:28:09;17.50;37.20
67901;DHT22;54700;51.796;10.956;2023-06-04T09:30:36;17.50;37.10
67901;DHT22;54700;51.796;10.956;2023-06-04T09:33:06;17.60;37.20
67901;DHT22;54700;51.796;10.956;2023-06-04T09:35:33;17.70;36.50
67901;DHT22;54700;51.796;10.956;2023-06-04T09:38:00;17.70;36.60
67901;DHT22;54700;51.796;10.956;2023-06-04T09:40:36;17.60;36.60
67901;DHT22;54700;51.796;10.956;2023-06-04T09:43:03;17.60;36.50
67901;DHT22;54700;51.796;10.956;2023-06-04T09:45:33;17.70;35.90
67901;DHT22;54700;51.796;10.956;2023-06-04T09:48:01;17.80;36.30
67901;DHT22;54700;51.796;10.956;2023-06-04T09:50:30;17.80;36.60
67901;DHT22;54700;51.796;10.956;2023-06-04T09:53:12;17.80;37.20
67901;DHT22;54700;51.796;10.956;2023-06-04T09:55:41;17.90;36.90
67901;DHT22;54700;51.796;10.956;2023-06-04T09:58:08;18.00;36.70
67901;DHT22;54700;51.796;10.956;2023-06-04T10:00:38;18.20;36.00
67901;DHT22;54700;51.796;10.956;2023-06-04T10:03:07;18.20;35.80
67901;DHT22;54700;51.796;10.956;2023-06-04T10:05:38;18.20;35.80
67901;DHT22;54700;51.796;10.956;2023-06-04T10:08:05;18.20;35.50
67901;DHT22;54700;51.796;10.956;2023-06-04T10:10:35;18.10;36.00
67901;DHT22;54700;51.796;10.956;2023-06-04T10:13:05;18.10;35.80
67901;DHT22;54700;51.796;10.956;2023-06-04T10:15:36;18.20;36.10
67901;DHT22;54700;51.796;10.956;2023-06-04T10:18:04;18.10;36.20
67901;DHT22;54700;51.796;10.956;2023-06-04T10:20:31;18.10;36.30
67901;DHT22;54700;51.796;10.956;2023-06-04T10:22:59;18.20;35.00
67901;DHT22;54700;51.796;10.956;2023-06-04T10:25:27;18.20;36.40
67901;DHT22;54700;51.796;10.956;2023-06-04T10:27:54;18.30;35.40
67901;DHT22;54700;51.796;10.956;2023-06-04T10:30:23;18.40;36.00
67901;DHT22;54700;51.796;10.956;2023-06-04T10:32:50;18.40;36.60
67901;DHT22;54700;51.796;10.956;2023-06-04T10:35:28;18.50;36.30
67901;DHT22;54700;51.796;10.956;2023-06-04T10:38:03;18.60;35.80
67901;DHT22;54700;51.796;10.956;2023-06-04T10:40:31;18.50;34.40
67901;DHT22;54700;51.796;10.956;2023-06-04T10:43:04;18.40;35.20
67901;DHT22;54700;51.796;10.956;2023-06-04T10:45:32;18.40;35.20
67901;DHT22;54700;51.796;10.956;2023-06-04T10:48:02;18.50;35.20
67901;DHT22;54700;51.796;10.956;2023-06-04T10:50:31;18.50;35.60
67901;DHT22;54700;51.796;10.956;2023-06-04T10:52:58;18.50;35.20
67901;DHT22;54700;51.796;10.956;2023-06-04T10:55:28;18.50;35.20
67901;DHT22;54700;51.796;10.956;2023-06-04T10:57:56;18.60;35.30
67901;DHT22;54700;51.796;10.956;2023-06-04T11:00:35;18.60;35.30
67901;DHT22;54700;51.796;10.956;2023-06-04T11:03:02;18.70;35.90
67901;DHT22;54700;51.796;10.956;2023-06-04T11:05:35;18.80;35.40
67901;DHT22;54700;51.796;10.956;2023-06-04T11:08:02;18.80;35.40
67901;DHT22;54700;51.796;10.956;2023-06-04T11:10:33;18.90;35.20
67901;DHT22;54700;51.796;10.956;2023-06-04T11:13:01;18.90;34.70
67901;DHT22;54700;51.796;10.956;2023-06-04T11:15:41;18.90;34.80
67901;DHT22;54700;51.796;10.956;2023-06-04T11:18:13;19.00;34.70
67901;DHT22;54700;51.796;10.956;2023-06-04T11:20:40;19.00;34.30
67901;DHT22;54700;51.796;10.956;2023-06-04T11:23:08;19.00;34.50
67901;DHT22;54700;51.796;10.956;2023-06-04T11:25:37;19.00;34.20
67901;DHT22;54700;51.796;10.956;2023-06-04T11:28:04;19.00;34.00
67901;DHT22;54700;51.796;10.956;2023-06-04T11:30:32;18.90;34.00
67901;DHT22;54700;51.796;10.956;2023-06-04T11:33:01;18.80;34.20
67901;DHT22;54700;51.796;10.956;2023-06-04T11:35:29;18.80;34.50
67901;DHT22;54700;51.796;10.956;2023-06-04T11:37:59;18.80;35.40
67901;DHT22;54700;51.796;10.956;2023-06-04T11:40:26;19.00;35.50
67901;DHT22;54700;51.796;10.956;2023-06-04T11:42:55;19.00;35.50
67901;DHT22;54700;51.796;10.956;2023-06-04T11:45:22;19.10;34.70
67901;DHT22;54700;51.796;10.956;2023-06-04T11:47:51;19.10;33.60
67901;DHT22;54700;51.796;10.956;2023-06-04T11:50:22;19.10;32.60
67901;DHT22;54700;51.796;10.956;2023-06-04T11:52:54;19.10;33.20
67901;DHT22;54700;51.796;10.956;2023-06-04T11:55:21;19.20;34.20
67901;DHT22;54700;51.796;10.956;2023-06-04T11:57:48;19.30;33.90
67901;DHT22;54700;51.796;10.956;2023-06-04T12:00:16;19.30;34.20
67901;DHT22;54700;51.796;10.956;2023-06-04T12:02:48;19.40;34.20
67901;DHT22;54700;51.796;10.956;2023-06-04T12:05:17;19.40;33.60
67901;DHT22;54700;51.796;10.956;2023-06-04T12:07:46;19.40;33.40
67901;DHT22;54700;51.796;10.956;2023-06-04T12:10:16;19.40;33.00
67901;DHT22;54700;51.796;10.956;2023-06-04T12:12:43;19.40;32.90
67901;DHT22;54700;51.796;10.956;2023-06-04T12:15:10;19.40;32.80
67901;DHT22;54700;51.796;10.956;2023-06-04T12:17:37;19.40;33.00
67901;DHT22;54700;51.796;10.956;2023-06-04T12:20:04;19.50;33.20
67901;DHT22;54700;51.796;10.956;2023-06-04T12:22:33;19.60;33.30
67901;DHT22;54700;51.796;10.956;2023-06-04T12:25:23;19.60;33.30
67901;DHT22;54700;51.796;10.956;2023-06-04T12:27:50;19.70;33.40
67901;DHT22;54700;51.796;10.956;2023-06-04T12:30:17;19.80;32.90
67901;DHT22;54700;51.796;10.956;2023-06-04T12:32:47;19.70;33.00
67901;DHT22;54700;51.796;10.956;2023-06-04T12:35:14;19.70;33.40
67901;DHT22;54700;51.796;10.956;2023-06-04T12:37:42;19.70;33.20
67901;DHT22;54700;51.796;10.956;2023-06-04T12:40:09;19.70;33.50
67901;DHT22;54700;51.796;10.956;2023-06-04T12:42:40;19.70;33.70
67901;DHT22;54700;51.796;10.956;2023-06-04T12:45:09;19.70;33.60
67901;DHT22;54700;51.796;10.956;2023-06-04T12:47:39;19.80;33.30
67901;DHT22;54700;51.796;10.956;2023-06-04T12:50:07;19.80;34.00
67901;DHT22;54700;51.796;10.956;2023-06-04T12:52:35;19.90;33.60
67901;DHT22;54700;51.796;10.956;2023-06-04T12:55:01;19.90;32.90
67901;DHT22;54700;51.796;10.956;2023-06-04T12:57:28;20.00;33.80
67901;DHT22;54700;51.796;10.956;2023-06-04T12:59:57;20.10;33.60
67901;DHT22;54700;51.796;10.956;2023-06-04T13:02:24;20.10;33.00
67901;DHT22;54700;51.796;10.956;2023-06-04T13:04:51;20.10;33.40
67901;DHT22;54700;51.796;10.956;2023-06-04T13:07:21;20.20;33.70
67901;DHT22;54700;51.796;10.956;2023-06-04T13:09:50;20.20;32.30
67901;DHT22;54700;51.796;10.956;2023-06-04T13:12:17;20.20;32.80
67901;DHT22;54700;51.796;10.956;2023-06-04T13:14:44;20.20;32.70
67901;DHT22;54700;51.796;10.956;2023-06-04T13:17:12;20.20;33.40
67901;DHT22;54700;51.796;10.956;2023-06-04T13:19:39;20.10;32.70
67901;DHT22;54700;51.796;10.956;2023-06-04T13:22:06;20.10;32.40
67901;DHT22;54700;51.796;10.956;2023-06-04T13:24:34;20.10;32.60
67901;DHT22;54700;51.796;10.956;2023-06-04T13:27:01;20.10;33.40
67901;DHT22;54700;51.796;10.956;2023-06-04T13:29:28;20.20;33.50
67901;DHT22;54700;51.796;10.956;2023-06-04T13:31:58;20.30;33.30
67901;DHT22;54700;51.796;10.956;2023-06-04T13:34:27;20.50;32.60
67901;DHT22;54700;51.796;10.956;2023-06-04T13:36:54;20.50;32.30
67901;DHT22;54700;51.796;10.956;2023-06-04T13:39:21;20.50;31.90
67901;DHT22;54700;51.796;10.956;2023-06-04T13:41:48;20.50;32.80
67901;DHT22;54700;51.796;10.956;2023-06-04T13:44:14;20.50;32.70
67901;DHT22;54700;51.796;10.956;2023-06-04T13:46:41;20.40;31.80
67901;DHT22;54700;51.796;10.956;2023-06-04T13:49:10;20.50;31.50
67901;DHT22;54700;51.796;10.956;2023-06-04T13:51:38;20.40;31.50
67901;DHT22;54700;51.796;10.956;2023-06-04T13:54:05;20.40;32.30
67901;DHT22;54700;51.796;10.956;2023-06-04T13:56:32;20.30;32.60
67901;DHT22;54700;51.796;10.956;2023-06-04T13:58:59;20.30;32.70
67901;DHT22;54700;51.796;10.956;2023-06-04T14:01:26;20.40;32.70
67901;DHT22;54700;51.796;10.956;2023-06-04T14:03:52;20.30;32.80
67901;DHT22;54700;51.796;10.956;2023-06-04T14:06:19;20.30;33.40
67901;DHT22;54700;51.796;10.956;2023-06-04T14:08:47;20.40;32.90
67901;DHT22;54700;51.796;10.956;2023-06-04T14:11:14;20.50;33.30
67901;DHT22;54700;51.796;10.956;2023-06-04T14:13:43;20.50;32.80
67901;DHT22;54700;51.796;10.956;2023-06-04T14:16:10;20.50;33.00
67901;DHT22;54700;51.796;10.956;2023-06-04T14:18:37;20.60;32.80
67901;DHT22;54700;51.796;10.956;2023-06-04T14:21:04;20.60;32.70
67901;DHT22;54700;51.796;10.956;2023-06-04T14:23:30;20.60;32.00
67901;DHT22;54700;51.796;10.956;2023-06-04T14:26:07;20.60;32.10
67901;DHT22;54700;51.796;10.956;2023-06-04T14:28:34;20.50;32.00
67901;DHT22;54700;51.796;10.956;2023-06-04T14:31:01;20.50;32.70
67901;DHT22;54700;51.796;10.956;2023-06-04T14:33:30;20.60;32.30
67901;DHT22;54700;51.796;10.956;2023-06-04T14:35:57;20.60;32.10
67901;DHT22;54700;51.796;10.956;2023-06-04T14:38:26;20.70;32.10
67901;DHT22;54700;51.796;10.956;2023-06-04T14:40:53;20.80;31.60
67901;DHT22;54700;51.796;10.956;2023-06-04T14:43:22;20.70;31.40
67901;DHT22;54700;51.796;10.956;2023-06-04T14:45:52;20.70;32.10
67901;DHT22;54700;51.796;10.956;2023-06-04T14:48:19;20.80;31.10
67901;DHT22;54700;51.796;10.956;2023-06-04T14:50:45;20.80;31.20
67901;DHT22;54700;51.796;10.956;2023-06-04T14:53:13;20.80;31.30
67901;DHT22;54700;51.796;10.956;2023-06-04T14:55:39;20.80;30.90
67901;DHT22;54700;51.796;10.956;2023-06-04T14:58:06;20.80;31.10
67901;DHT22;54700;51.796;10.956;2023-06-04T15:00:35;20.80;31.50
67901;DHT22;54700;51.796;10.956;2023-06-04T15:03:02;20.80;31.10
67901;DHT22;54700;51.796;10.956;2023-06-04T15:05:29;20.90;30.70
67901;DHT22;54700;51.796;10.956;2023-06-04T15:07:56;20.90;30.70
67901;DHT22;54700;51.796;10.956;2023-06-04T15:10:24;20.90;30.70
67901;DHT22;54700;51.796;10.956;2023-06-04T15:12:51;21.00;30.80
67901;DHT22;54700;51.796;10.956;2023-06-04T15:15:18;21.00;30.80
67901;DHT22;54700;51.796;10.956;2023-06-04T15:17:51;21.00;30.40
67901;DHT22;54700;51.796;10.956;2023-06-04T15:20:18;21.00;30.80
67901;DHT22;54700;51.796;10.956;2023-06-04T15:22:45;21.10;31.00
67901;DHT22;54700;51.796;10.956;2023-06-04T15:25:13;21.10;29.90